Terminal Aerodrome Forecast
Issued by NWS Shreveport, LA

Home | Current Version | Previous Version | Text Only | Print | Product List | Glossary On
Versions: 1 2 3 4 5 6 7 8 9 10 11 12 13 14 15 16 17 18
000
FTUS44 KSHV 220520
TAFELD
TAF
KELD 220520Z 2206/2306 24010KT P6SM VCSH SCT025 BKN080 BKN250
      TEMPO 2208/2212 5SM -SHRA BR BKN080
     FM221200 22010KT P6SM VCSH BKN080 BKN250
     FM221600 26012G18KT P6SM VCSH BKN100 BKN250
     FM221800 27014G24KT P6SM VCTS BKN040CB BKN100 BKN250
     FM230200 30015G25KT P6SM BKN035=

USA.gov is the U.S. government's official web portal to all federal, state and local government web resources and services.